createdAt,value
2024-01-04T00:07:53.858Z,4.80
2024-01-04T00:16:21.070Z,7.30
2024-01-04T00:24:46.448Z,5.00
2024-01-04T00:33:12.171Z,3.50
2024-01-04T00:41:37.164Z,4.70
2024-01-04T00:50:05.230Z,9.00
2024-01-04T00:58:30.277Z,4.20
2024-01-04T01:06:55.305Z,3.90
2024-01-04T01:15:20.614Z,2.10
2024-01-04T01:23:45.365Z,3.90
2024-01-04T01:32:09.793Z,2.00
2024-01-04T01:40:33.902Z,3.70
2024-01-04T01:49:02.697Z,2.20
2024-01-04T01:57:29.918Z,3.70
2024-01-04T02:05:54.840Z,4.40
2024-01-04T02:14:18.995Z,3.00
2024-01-04T02:22:44.869Z,4.10
2024-01-04T02:31:09.146Z,1.50
2024-01-04T02:39:33.559Z,1.50
2024-01-04T02:47:57.751Z,3.90
2024-01-04T02:56:23.592Z,1.60
2024-01-04T03:04:47.375Z,2.70
2024-01-04T03:13:11.085Z,3.50
2024-01-04T03:21:35.062Z,3.90
2024-01-04T03:30:02.169Z,4.00
2024-01-04T03:38:28.068Z,3.50
2024-01-04T03:46:52.015Z,4.20
2024-01-04T03:55:18.675Z,6.00
2024-01-04T04:03:43.322Z,4.30
2024-01-04T04:12:08.807Z,4.50
2024-01-04T04:20:34.347Z,4.20
2024-01-04T04:28:57.690Z,5.20
2024-01-04T04:37:22.550Z,8.00
2024-01-04T04:45:46.481Z,10.00
2024-01-04T04:54:12.220Z,7.30
2024-01-04T05:02:36.273Z,9.90
2024-01-04T05:11:01.777Z,7.90
2024-01-04T05:19:25.539Z,6.20
2024-01-04T05:27:50.293Z,6.40
2024-01-04T05:36:17.450Z,9.80
2024-01-04T05:44:45.042Z,7.90
2024-01-04T05:53:08.828Z,7.60
2024-01-04T06:01:34.155Z,8.60
2024-01-04T06:09:59.959Z,6.50
2024-01-04T06:18:26.050Z,9.70
2024-01-04T06:26:49.601Z,13.40
2024-01-04T06:35:14.940Z,8.70
2024-01-04T06:43:38.567Z,8.40
2024-01-04T06:52:04.020Z,8.10
2024-01-04T07:00:28.489Z,6.50
2024-01-04T07:08:53.302Z,8.20
2024-01-04T07:17:17.756Z,7.70
2024-01-04T07:25:42.096Z,11.20
2024-01-04T07:34:08.292Z,8.30
2024-01-04T07:42:33.001Z,11.10
2024-01-04T07:50:57.125Z,6.70
2024-01-04T07:59:25.971Z,7.10
2024-01-04T08:07:50.010Z,8.80
2024-01-04T08:16:16.418Z,7.10
2024-01-04T08:24:43.982Z,11.90
2024-01-04T08:33:08.963Z,6.20
2024-01-04T08:41:33.084Z,5.40
2024-01-04T08:50:02.060Z,9.30
2024-01-04T08:58:26.724Z,4.40
2024-01-04T09:06:50.348Z,5.30
2024-01-04T09:15:14.195Z,5.70
2024-01-04T09:23:41.411Z,4.40
2024-01-04T09:32:06.939Z,180.30
2024-01-04T09:40:32.803Z,193.50
2024-01-04T09:49:00.912Z,508.30
2024-01-04T09:57:25.159Z,266.90
2024-01-04T10:05:50.220Z,410.80
2024-01-04T10:14:15.430Z,418.10
2024-01-04T10:22:42.142Z,113.00
2024-01-04T10:31:25.621Z,43.50
2024-01-04T10:40:06.128Z,21.90
2024-01-04T10:48:30.669Z,16.10
2024-01-04T10:56:56.850Z,23.50
2024-01-04T11:05:24.633Z,8.60
2024-01-04T11:13:50.271Z,45.40
2024-01-04T11:22:32.584Z,6.20
2024-01-04T11:30:58.373Z,7.60
2024-01-04T11:39:28.795Z,7.20
2024-01-04T11:47:54.642Z,7.50
2024-01-04T11:56:20.347Z,7.80
2024-01-04T12:04:45.451Z,4.80
2024-01-04T12:13:12.840Z,8.00
2024-01-04T12:21:38.794Z,11.60
2024-01-04T12:30:06.735Z,5.80
2024-01-04T12:38:30.688Z,6.30
2024-01-04T12:47:26.420Z,6.20
2024-01-04T12:55:54.182Z,6.90
2024-01-04T13:04:21.059Z,6.10
2024-01-04T13:12:47.393Z,5.50
2024-01-04T13:21:11.374Z,17.80
2024-01-04T13:29:41.611Z,9.20
2024-01-04T13:38:09.044Z,6.60
2024-01-04T13:46:34.373Z,5.80
2024-01-04T13:54:58.863Z,9.30
2024-01-04T14:03:23.409Z,8.70
2024-01-04T14:11:48.712Z,7.50
2024-01-04T14:20:15.612Z,2.70
2024-01-04T14:28:43.234Z,3.40
2024-01-04T14:37:08.157Z,5.50
2024-01-04T14:45:38.085Z,6.80
2024-01-04T14:54:09.739Z,6.30
2024-01-04T15:02:34.669Z,4.50
2024-01-04T15:11:02.966Z,4.70
2024-01-04T15:19:32.210Z,7.50
2024-01-04T15:28:01.354Z,4.10
2024-01-04T15:36:29.574Z,8.50
2024-01-04T15:45:02.058Z,4.50
2024-01-04T15:53:31.877Z,5.90
2024-01-04T16:02:00.384Z,10.30
2024-01-04T16:10:28.273Z,4.40
2024-01-04T16:18:54.979Z,3.70
2024-01-04T16:27:24.183Z,6.60
2024-01-04T16:35:52.578Z,4.70
2024-01-04T16:44:19.694Z,5.00
2024-01-04T16:52:49.022Z,3.70
2024-01-04T17:01:12.388Z,5.00
2024-01-04T17:09:45.468Z,8.30
2024-01-04T17:18:14.479Z,29.30
2024-01-04T17:26:46.744Z,19.70
2024-01-04T17:35:14.552Z,436.30
2024-01-04T17:43:42.481Z,311.10
2024-01-04T17:52:19.148Z,72.80
2024-01-04T18:00:45.768Z,35.20
2024-01-04T18:09:14.216Z,6.80
2024-01-04T18:17:45.241Z,29.40
2024-01-04T18:26:10.531Z,12.50
2024-01-04T18:34:37.824Z,8.20
2024-01-04T18:43:05.691Z,24.60
2024-01-04T18:51:34.055Z,27.50
2024-01-04T19:00:01.218Z,40.40
2024-01-04T19:08:26.321Z,21.70
2024-01-04T19:16:54.575Z,7.30
2024-01-04T19:25:21.022Z,8.00
2024-01-04T19:33:47.922Z,8.00
2024-01-04T19:42:17.874Z,2.90
2024-01-04T19:50:58.600Z,5.00
2024-01-04T19:59:26.081Z,3.50
2024-01-04T20:07:51.529Z,5.70
2024-01-04T20:16:19.608Z,8.30
2024-01-04T20:24:52.034Z,4.20
2024-01-04T20:33:20.852Z,5.90
2024-01-04T20:41:48.809Z,4.70
2024-01-04T20:50:16.358Z,84.10
2024-01-04T20:58:44.396Z,22.40
2024-01-04T21:07:10.543Z,21.80
2024-01-04T21:15:35.058Z,5.80
2024-01-04T21:24:02.559Z,12.90
2024-01-04T21:32:29.988Z,16.80
2024-01-04T21:40:57.557Z,9.00
2024-01-04T21:49:24.113Z,5.30
2024-01-04T21:57:50.122Z,6.40
2024-01-04T22:06:17.603Z,5.70
2024-01-04T22:14:41.449Z,4.80
2024-01-04T22:23:07.339Z,4.80
2024-01-04T22:31:32.946Z,6.50
2024-01-04T22:39:59.723Z,11.40
2024-01-04T22:48:24.703Z,16.20
2024-01-04T22:56:48.832Z,19.80
2024-01-04T23:05:14.269Z,18.60
2024-01-04T23:13:40.855Z,13.80
2024-01-04T23:22:04.824Z,11.70
2024-01-04T23:30:34.381Z,14.60
2024-01-04T23:39:01.319Z,14.00
2024-01-04T23:47:25.342Z,12.20
2024-01-04T23:55:49.354Z,15.30
